Time;durP1;ratioP1;P1;durP2;ratioP2;P2;SDS_P1;SDS_P2;PMS_P1;PMS_P2;Temp;Humidity;BMP_temperature;BMP_pressure;BME280_temperature;BME280_humidity;BME280_pressure;Samples;Min_cycle;Max_cycle;Signal;HPM_P1;HPM_P2
2022/12/11 00:00:23;;;;;;;27.95;10.05;;;;;;;;;;5025576;28;20420;-73
2022/12/11 00:02:49;;;;;;;44.80;11.88;;;;;;;;;;5029239;28;20049;-73
2022/12/11 00:05:14;;;;;;;42.88;11.85;;;;;;;;;;5023427;28;20038;-73
2022/12/11 00:07:39;;;;;;;21.55;9.15;;;;;;;;;;5025148;28;20040;-73
2022/12/11 00:10:06;;;;;;;40.88;10.80;;;;;;;;;;5023211;28;20358;-73
2022/12/11 00:12:31;;;;;;;27.63;10.70;;;;;;;;;;5025183;28;20087;-73
2022/12/11 00:14:56;;;;;;;31.60;10.02;;;;;;;;;;5026610;28;20030;-74
2022/12/11 00:17:22;;;;;;;29.13;10.38;;;;;;;;;;5031993;28;20045;-73
2022/12/11 00:19:47;;;;;;;29.88;10.52;;;;;;;;;;5048113;28;20071;-74
2022/12/11 00:22:13;;;;;;;26.58;9.70;;;;;;;;;;5025731;28;20481;-73
2022/12/11 00:24:38;;;;;;;41.90;11.02;;;;;;;;;;5042038;28;20041;-73
2022/12/11 00:27:03;;;;;;;34.13;11.70;;;;;;;;;;5017135;28;20513;-73
2022/12/11 00:29:29;;;;;;;27.17;9.45;;;;;;;;;;5025444;28;20091;-73
2022/12/11 00:31:54;;;;;;;35.63;11.55;;;;;;;;;;5032954;28;20041;-73
2022/12/11 00:34:19;;;;;;;30.42;10.25;;;;;;;;;;5031923;28;20040;-73
2022/12/11 00:36:45;;;;;;;33.00;9.77;;;;;;;;;;5045140;28;20029;-73
2022/12/11 00:39:10;;;;;;;45.53;10.93;;;;;;;;;;5024703;28;20433;-74
2022/12/11 00:41:36;;;;;;;23.65;8.57;;;;;;;;;;5022720;28;20037;-73
2022/12/11 00:44:01;;;;;;;34.58;9.07;;;;;;;;;;5032030;28;20041;-73
2022/12/11 00:46:26;;;;;;;32.38;9.55;;;;;;;;;;5027525;28;20038;-74
2022/12/11 00:48:52;;;;;;;32.88;9.77;;;;;;;;;;5033697;28;20045;-73
2022/12/11 00:51:17;;;;;;;30.70;9.82;;;;;;;;;;5025454;28;20111;-74
2022/12/11 00:53:43;;;;;;;48.15;11.02;;;;;;;;;;5022950;28;20061;-73
2022/12/11 00:56:14;;;;;;;37.60;10.55;;;;;;;;;;5025106;28;20535;-73
2022/12/11 00:58:39;;;;;;;35.38;10.15;;;;;;;;;;5037994;28;20363;-73
2022/12/11 01:01:09;;;;;;;36.65;10.13;;;;;;;;;;5027846;28;20045;-73
2022/12/11 01:03:35;;;;;;;31.90;9.18;;;;;;;;;;5034011;28;20176;-73
2022/12/11 01:06:01;;;;;;;39.10;11.45;;;;;;;;;;5012230;28;20390;-73
2022/12/11 01:08:26;;;;;;;32.08;9.70;;;;;;;;;;5006344;28;20213;-73
2022/12/11 01:11:00;;;;;;;30.90;10.45;;;;;;;;;;5020922;28;20029;-73
2022/12/11 01:13:26;;;;;;;27.85;9.55;;;;;;;;;;5026213;28;20401;-73
2022/12/11 01:15:51;;;;;;;29.38;11.50;;;;;;;;;;5030490;28;20041;-73
2022/12/11 01:18:16;;;;;;;35.63;10.98;;;;;;;;;;5026542;28;20096;-73
2022/12/11 01:20:42;;;;;;;25.58;9.55;;;;;;;;;;5022302;28;20488;-73
2022/12/11 01:23:09;;;;;;;35.67;9.93;;;;;;;;;;5018468;28;20037;-74
2022/12/11 01:25:37;;;;;;;33.83;10.55;;;;;;;;;;5045433;28;20048;-73
2022/12/11 01:28:03;;;;;;;28.48;11.32;;;;;;;;;;5022043;28;20034;-73
2022/12/11 01:30:28;;;;;;;30.23;10.32;;;;;;;;;;5004465;28;20119;-73
2022/12/11 01:32:53;;;;;;;24.27;9.10;;;;;;;;;;5020566;28;20109;-73
2022/12/11 01:35:19;;;;;;;25.60;8.93;;;;;;;;;;5022108;28;20428;-73
2022/12/11 01:37:45;;;;;;;33.67;10.60;;;;;;;;;;5001037;28;20030;-73
2022/12/11 01:40:15;;;;;;;27.67;9.73;;;;;;;;;;5027851;28;20026;-73
2022/12/11 01:42:40;;;;;;;25.45;9.57;;;;;;;;;;5019479;28;20090;-73
2022/12/11 01:45:21;;;;;;;25.60;8.35;;;;;;;;;;5012974;28;20038;-74
2022/12/11 01:47:50;;;;;;;25.85;8.93;;;;;;;;;;5019401;28;20132;-73
2022/12/11 01:50:16;;;;;;;25.15;8.52;;;;;;;;;;5038908;28;20045;-74
2022/12/11 01:52:43;;;;;;;25.95;8.82;;;;;;;;;;5003560;28;20038;-73
2022/12/11 01:55:09;;;;;;;25.80;8.32;;;;;;;;;;5035173;28;20026;-73
2022/12/11 01:57:36;;;;;;;23.85;9.60;;;;;;;;;;5017391;28;20416;-73
2022/12/11 02:00:03;;;;;;;26.63;9.65;;;;;;;;;;5031688;28;20030;-73
2022/12/11 02:02:30;;;;;;;24.00;10.27;;;;;;;;;;5025787;28;20436;-74
2022/12/11 02:04:55;;;;;;;29.25;10.40;;;;;;;;;;5020786;28;20038;-74
2022/12/11 02:07:21;;;;;;;24.65;9.82;;;;;;;;;;5019028;28;20026;-73
2022/12/11 02:09:47;;;;;;;31.25;9.73;;;;;;;;;;5034735;28;20037;-73
2022/12/11 02:12:21;;;;;;;25.65;9.48;;;;;;;;;;5041510;28;20429;-73
2022/12/11 02:14:57;;;;;;;23.88;9.07;;;;;;;;;;5027822;28;20580;-74
2022/12/11 02:17:37;;;;;;;25.10;8.57;;;;;;;;;;5024832;28;20037;-73
2022/12/11 02:20:21;;;;;;;24.05;8.45;;;;;;;;;;5004797;28;20033;-73
2022/12/11 02:22:58;;;;;;;23.85;8.13;;;;;;;;;;5009667;28;20034;-73
2022/12/11 02:25:31;;;;;;;19.92;8.02;;;;;;;;;;5017716;28;20529;-73
2022/12/11 02:28:22;;;;;;;22.73;9.27;;;;;;;;;;5016125;28;20061;-74
2022/12/11 02:30:54;;;;;;;25.35;10.00;;;;;;;;;;5020198;28;20112;-73
2022/12/11 02:33:33;;;;;;;25.15;9.30;;;;;;;;;;5017044;28;20076;-73
2022/12/11 02:35:59;;;;;;;23.70;9.98;;;;;;;;;;5023115;28;20389;-73
2022/12/11 02:38:31;;;;;;;24.95;8.60;;;;;;;;;;5020336;28;20063;-74
2022/12/11 02:40:57;;;;;;;26.05;9.10;;;;;;;;;;5002077;28;20029;-73
2022/12/11 02:43:24;;;;;;;24.10;9.38;;;;;;;;;;5020821;28;20038;-73
2022/12/11 02:45:50;;;;;;;24.58;8.68;;;;;;;;;;5021364;28;20037;-73
2022/12/11 02:48:16;;;;;;;22.48;7.75;;;;;;;;;;5020068;28;20049;-73
2022/12/11 02:50:46;;;;;;;28.20;9.85;;;;;;;;;;5025847;28;20116;-73
2022/12/11 02:53:14;;;;;;;23.77;9.10;;;;;;;;;;5002505;28;20044;-74
2022/12/11 02:55:41;;;;;;;19.83;8.68;;;;;;;;;;4997535;28;20390;-73
2022/12/11 02:58:13;;;;;;;22.67;8.35;;;;;;;;;;5010166;28;20021;-73
2022/12/11 03:00:38;;;;;;;26.15;9.65;;;;;;;;;;5002511;28;20037;-73
2022/12/11 03:03:03;;;;;;;19.88;8.95;;;;;;;;;;5016014;28;20038;-73
2022/12/11 03:05:29;;;;;;;24.38;8.07;;;;;;;;;;5019889;28;20040;-73
2022/12/11 03:07:55;;;;;;;25.13;9.15;;;;;;;;;;5020828;28;20045;-73
2022/12/11 03:10:20;;;;;;;26.90;9.48;;;;;;;;;;5016518;28;20044;-74
2022/12/11 03:12:49;;;;;;;22.50;8.52;;;;;;;;;;5046143;28;20037;-73
2022/12/11 03:15:16;;;;;;;18.70;7.63;;;;;;;;;;5027897;28;20544;-73
2022/12/11 03:17:47;;;;;;;29.77;10.38;;;;;;;;;;5037511;28;20038;-73
2022/12/11 03:20:23;;;;;;;18.77;7.82;;;;;;;;;;5016451;28;20056;-73
2022/12/11 03:22:51;;;;;;;19.27;9.25;;;;;;;;;;5020796;28;20088;-73
2022/12/11 03:25:46;;;;;;;23.65;9.05;;;;;;;;;;5028776;28;20437;-73
2022/12/11 03:28:18;;;;;;;22.27;7.68;;;;;;;;;;5022006;28;20065;-73
2022/12/11 03:30:45;;;;;;;20.27;8.55;;;;;;;;;;5023658;28;20026;-73
2022/12/11 03:33:32;;;;;;;21.85;9.13;;;;;;;;;;5007626;28;20477;-73
2022/12/11 03:36:03;;;;;;;22.75;8.05;;;;;;;;;;5034261;28;20044;-73
2022/12/11 03:38:34;;;;;;;18.67;9.70;;;;;;;;;;4995246;28;20030;-74
2022/12/11 03:41:01;;;;;;;21.67;9.13;;;;;;;;;;5001881;28;20034;-73
2022/12/11 03:43:28;;;;;;;19.80;8.75;;;;;;;;;;4997286;28;20088;-73
2022/12/11 03:45:54;;;;;;;21.23;8.50;;;;;;;;;;5000739;28;20434;-73
2022/12/11 03:48:20;;;;;;;24.55;8.88;;;;;;;;;;5036524;28;20050;-73
2022/12/11 03:50:46;;;;;;;17.73;7.90;;;;;;;;;;5036631;28;20034;-73
2022/12/11 03:53:12;;;;;;;26.02;9.18;;;;;;;;;;5017431;28;20042;-73
2022/12/11 03:55:38;;;;;;;27.45;8.82;;;;;;;;;;5001752;28;20389;-73
2022/12/11 03:58:04;;;;;;;18.27;7.55;;;;;;;;;;4995448;28;20025;-73
2022/12/11 04:00:29;;;;;;;23.63;9.02;;;;;;;;;;5023948;28;20029;-74
2022/12/11 04:03:13;;;;;;;19.65;7.20;;;;;;;;;;5020249;28;20056;-73
2022/12/11 04:05:45;;;;;;;22.88;8.05;;;;;;;;;;4992870;28;20044;-73
2022/12/11 04:08:11;;;;;;;15.82;7.43;;;;;;;;;;5009095;28;20051;-74
2022/12/11 04:10:37;;;;;;;23.52;8.88;;;;;;;;;;5026464;28;20022;-73
2022/12/11 04:13:02;;;;;;;21.45;7.60;;;;;;;;;;5015250;28;20363;-74
2022/12/11 04:15:28;;;;;;;20.27;8.35;;;;;;;;;;5017598;28;20037;-73
2022/12/11 04:26:17;;;;;;;19.08;7.97;;;;;;;;;;5022874;28;20400;-73
2022/12/11 04:28:43;;;;;;;22.55;8.35;;;;;;;;;;5023951;28;20033;-73
2022/12/11 04:31:14;;;;;;;21.02;8.27;;;;;;;;;;5006123;28;20449;-73
2022/12/11 04:33:39;;;;;;;20.77;8.15;;;;;;;;;;5033750;28;20117;-74
2022/12/11 04:36:05;;;;;;;19.50;7.47;;;;;;;;;;5023546;28;20072;-73
2022/12/11 04:38:31;;;;;;;18.30;7.93;;;;;;;;;;5027789;28;20073;-73
2022/12/11 04:41:01;;;;;;;23.17;8.00;;;;;;;;;;5031952;28;20080;-73
2022/12/11 04:43:27;;;;;;;21.92;8.15;;;;;;;;;;5023516;28;20500;-73
2022/12/11 04:46:13;;;;;;;18.17;8.80;;;;;;;;;;5020396;28;20120;-73
2022/12/11 04:48:39;;;;;;;24.42;8.85;;;;;;;;;;5003655;28;20049;-73
2022/12/11 04:51:06;;;;;;;25.90;8.15;;;;;;;;;;5021552;28;20398;-73
2022/12/11 04:53:31;;;;;;;23.13;7.72;;;;;;;;;;5042460;28;20038;-73
2022/12/11 04:55:56;;;;;;;17.92;8.30;;;;;;;;;;5019801;28;20084;-73
2022/12/11 04:58:23;;;;;;;17.00;7.28;;;;;;;;;;5017582;28;20088;-73
2022/12/11 05:00:48;;;;;;;23.75;8.45;;;;;;;;;;5008923;28;20069;-73
2022/12/11 05:03:14;;;;;;;26.23;8.18;;;;;;;;;;5026108;28;20071;-73
2022/12/11 05:05:39;;;;;;;20.50;7.53;;;;;;;;;;5021373;28;20079;-73
2022/12/11 05:08:04;;;;;;;17.25;7.00;;;;;;;;;;5029150;28;20037;-73
2022/12/11 05:10:30;;;;;;;16.70;8.07;;;;;;;;;;5025859;28;20046;-73
2022/12/11 05:12:55;;;;;;;18.58;8.35;;;;;;;;;;5026471;28;20481;-73
2022/12/11 05:15:22;;;;;;;25.55;9.63;;;;;;;;;;5028115;28;20437;-73
2022/12/11 05:17:48;;;;;;;20.98;8.70;;;;;;;;;;5046398;28;20073;-73
2022/12/11 05:20:13;;;;;;;17.80;7.90;;;;;;;;;;5031389;28;20095;-74
2022/12/11 05:22:39;;;;;;;18.65;7.60;;;;;;;;;;5034495;28;20046;-73
2022/12/11 05:25:05;;;;;;;16.38;8.18;;;;;;;;;;5020522;28;20534;-73
2022/12/11 05:27:31;;;;;;;22.10;8.00;;;;;;;;;;5033845;28;20385;-73
2022/12/11 05:29:56;;;;;;;20.90;8.15;;;;;;;;;;5035308;28;20038;-73
2022/12/11 05:32:22;;;;;;;19.73;7.60;;;;;;;;;;5029683;28;20037;-73
2022/12/11 05:34:49;;;;;;;17.40;7.82;;;;;;;;;;5030678;28;20386;-73
2022/12/11 05:37:14;;;;;;;23.52;7.53;;;;;;;;;;5022699;28;20099;-73
2022/12/11 05:39:40;;;;;;;26.52;8.60;;;;;;;;;;5023654;28;20481;-73
2022/12/11 05:42:05;;;;;;;27.73;8.13;;;;;;;;;;5021681;28;20072;-73
2022/12/11 05:44:31;;;;;;;26.55;8.05;;;;;;;;;;5018085;28;20099;-73
2022/12/11 05:46:56;;;;;;;22.35;7.57;;;;;;;;;;5030090;28;20048;-73
2022/12/11 05:49:21;;;;;;;21.50;7.65;;;;;;;;;;5019227;28;20069;-74
2022/12/11 05:51:47;;;;;;;21.98;7.45;;;;;;;;;;5019651;28;20504;-73
2022/12/11 05:54:12;;;;;;;15.45;6.88;;;;;;;;;;5018379;28;20041;-73
2022/12/11 05:56:38;;;;;;;14.48;6.95;;;;;;;;;;5019514;28;20048;-73
2022/12/11 05:59:04;;;;;;;16.67;7.00;;;;;;;;;;5025189;28;20126;-73
2022/12/11 06:01:35;;;;;;;20.88;8.18;;;;;;;;;;5008786;28;20041;-73
2022/12/11 06:04:03;;;;;;;14.63;6.63;;;;;;;;;;5014563;28;20029;-73
2022/12/11 06:06:28;;;;;;;16.45;7.35;;;;;;;;;;5003358;28;20041;-73
2022/12/11 06:08:55;;;;;;;17.10;7.43;;;;;;;;;;5021375;28;20038;-73
2022/12/11 06:11:21;;;;;;;14.63;7.38;;;;;;;;;;5004611;28;20030;-74
2022/12/11 06:13:46;;;;;;;17.08;6.95;;;;;;;;;;5008977;28;20060;-73
2022/12/11 06:16:12;;;;;;;13.90;6.65;;;;;;;;;;5000161;28;20042;-73
2022/12/11 06:18:39;;;;;;;15.65;7.15;;;;;;;;;;5021842;28;20029;-73
2022/12/11 06:21:15;;;;;;;17.95;7.25;;;;;;;;;;5025741;28;20033;-73
2022/12/11 06:23:41;;;;;;;22.35;6.82;;;;;;;;;;5029284;28;20375;-73
2022/12/11 06:26:08;;;;;;;15.65;7.05;;;;;;;;;;5017782;28;20037;-73
2022/12/11 06:28:33;;;;;;;15.85;6.82;;;;;;;;;;5029558;28;20388;-73
2022/12/11 06:30:59;;;;;;;19.52;7.53;;;;;;;;;;5025779;28;20037;-73
2022/12/11 06:33:25;;;;;;;16.17;7.13;;;;;;;;;;5041821;28;20116;-73
2022/12/11 06:35:50;;;;;;;19.40;8.38;;;;;;;;;;5028671;28;20113;-73
2022/12/11 06:38:16;;;;;;;14.18;6.32;;;;;;;;;;5029357;28;20037;-74
2022/12/11 06:40:42;;;;;;;17.70;7.32;;;;;;;;;;5037677;28;20117;-73
2022/12/11 06:43:07;;;;;;;17.95;6.95;;;;;;;;;;5020532;28;20445;-73
2022/12/11 06:45:32;;;;;;;16.33;7.00;;;;;;;;;;5030430;28;20040;-74
2022/12/11 06:47:58;;;;;;;13.85;6.93;;;;;;;;;;5031596;28;20049;-73
2022/12/11 06:50:23;;;;;;;17.15;7.57;;;;;;;;;;5020170;28;20026;-73
2022/12/11 06:52:48;;;;;;;18.70;7.57;;;;;;;;;;5021595;28;20045;-73
2022/12/11 06:55:14;;;;;;;19.00;7.38;;;;;;;;;;5014941;28;20029;-73
2022/12/11 06:57:39;;;;;;;17.45;7.82;;;;;;;;;;5017135;28;20034;-73
2022/12/11 07:00:05;;;;;;;18.33;7.47;;;;;;;;;;5033326;28;20100;-73
2022/12/11 07:02:31;;;;;;;21.65;8.07;;;;;;;;;;5016996;28;20042;-74
2022/12/11 07:04:56;;;;;;;15.13;7.20;;;;;;;;;;5024567;28;20025;-73
2022/12/11 07:07:22;;;;;;;17.70;7.60;;;;;;;;;;5018493;28;20092;-74
2022/12/11 07:09:47;;;;;;;17.00;6.93;;;;;;;;;;5041283;28;20493;-73
2022/12/11 07:12:13;;;;;;;15.30;7.40;;;;;;;;;;5022544;28;20044;-73
2022/12/11 07:14:38;;;;;;;19.58;8.05;;;;;;;;;;5027451;28;20048;-73
2022/12/11 07:17:03;;;;;;;22.35;7.88;;;;;;;;;;5016602;28;20046;-73
2022/12/11 07:19:29;;;;;;;14.38;6.68;;;;;;;;;;5021125;28;20433;-73
2022/12/11 07:21:54;;;;;;;25.17;9.25;;;;;;;;;;5028768;28;20041;-73
2022/12/11 07:24:20;;;;;;;20.52;7.95;;;;;;;;;;5026008;28;20478;-74
2022/12/11 07:26:45;;;;;;;15.88;7.30;;;;;;;;;;5019688;28;20121;-73
2022/12/11 07:29:10;;;;;;;27.25;10.60;;;;;;;;;;5043770;28;20073;-73
2022/12/11 07:31:36;;;;;;;28.45;12.68;;;;;;;;;;5026592;28;20049;-73
2022/12/11 07:34:04;;;;;;;31.08;13.52;;;;;;;;;;5025242;28;20112;-73
2022/12/11 07:36:30;;;;;;;23.95;10.35;;;;;;;;;;5017550;28;20042;-73
2022/12/11 07:38:55;;;;;;;23.30;9.50;;;;;;;;;;5031903;28;20037;-73
2022/12/11 07:41:22;;;;;;;22.63;9.65;;;;;;;;;;5025477;28;20036;-73
2022/12/11 07:43:47;;;;;;;22.33;8.00;;;;;;;;;;5028860;28;20033;-74
2022/12/11 07:46:15;;;;;;;19.42;7.75;;;;;;;;;;5005034;28;20042;-73
2022/12/11 07:48:42;;;;;;;25.10;8.75;;;;;;;;;;5013240;28;20079;-73
2022/12/11 07:51:15;;;;;;;19.60;8.45;;;;;;;;;;5033304;28;20041;-73
2022/12/11 07:53:42;;;;;;;30.95;10.63;;;;;;;;;;5023126;28;20386;-73
2022/12/11 07:56:07;;;;;;;25.70;11.82;;;;;;;;;;5040718;28;20122;-73
2022/12/11 07:58:34;;;;;;;27.15;12.45;;;;;;;;;;5028240;28;20049;-74
2022/12/11 08:01:00;;;;;;;26.67;12.23;;;;;;;;;;5037005;28;20040;-73
2022/12/11 08:03:26;;;;;;;29.95;13.68;;;;;;;;;;5020043;28;20042;-74
2022/12/11 08:05:52;;;;;;;44.47;18.75;;;;;;;;;;5022007;28;20044;-73
2022/12/11 08:08:18;;;;;;;26.77;13.15;;;;;;;;;;5038918;28;20039;-74
2022/12/11 08:10:43;;;;;;;26.15;10.23;;;;;;;;;;5024678;28;20084;-73
2022/12/11 08:13:09;;;;;;;21.52;10.30;;;;;;;;;;5034224;28;20041;-73
2022/12/11 08:15:34;;;;;;;21.35;9.50;;;;;;;;;;5024021;28;20022;-73
2022/12/11 08:18:00;;;;;;;29.30;10.10;;;;;;;;;;5013061;28;20049;-73
2022/12/11 08:20:25;;;;;;;24.00;11.52;;;;;;;;;;5027792;28;20044;-73
2022/12/11 08:22:50;;;;;;;23.70;9.00;;;;;;;;;;5028036;28;20420;-73
2022/12/11 08:25:16;;;;;;;24.33;10.63;;;;;;;;;;5032933;28;20040;-73
2022/12/11 08:27:41;;;;;;;25.52;11.13;;;;;;;;;;5037694;28;20045;-74
2022/12/11 08:30:08;;;;;;;20.92;9.73;;;;;;;;;;5027566;28;20962;-73
2022/12/11 08:32:34;;;;;;;27.00;10.50;;;;;;;;;;5021911;28;20048;-73
2022/12/11 08:34:59;;;;;;;27.00;10.48;;;;;;;;;;5006001;28;20034;-74
2022/12/11 08:37:25;;;;;;;17.88;8.80;;;;;;;;;;5005860;28;20030;-73
2022/12/11 08:39:50;;;;;;;25.00;9.55;;;;;;;;;;5025241;28;20038;-74
2022/12/11 08:42:15;;;;;;;26.58;12.73;;;;;;;;;;5027862;28;20121;-73
2022/12/11 08:44:41;;;;;;;26.65;11.93;;;;;;;;;;5024600;28;20034;-73
2022/12/11 08:47:08;;;;;;;27.35;11.60;;;;;;;;;;5017615;28;20042;-74
2022/12/11 08:49:34;;;;;;;34.40;13.35;;;;;;;;;;5017216;28;20100;-73
2022/12/11 08:52:00;;;;;;;39.10;17.02;;;;;;;;;;5027104;28;20033;-73
2022/12/11 08:54:25;;;;;;;41.78;17.35;;;;;;;;;;5018013;28;20038;-74
2022/12/11 08:56:50;;;;;;;35.22;15.73;;;;;;;;;;5020476;28;20065;-73
2022/12/11 08:59:17;;;;;;;33.35;14.13;;;;;;;;;;5024631;28;20417;-74
2022/12/11 09:01:42;;;;;;;26.80;12.25;;;;;;;;;;5017698;28;20042;-73
2022/12/11 09:04:08;;;;;;;35.15;14.50;;;;;;;;;;5019919;28;20099;-73
2022/12/11 09:06:33;;;;;;;43.88;21.48;;;;;;;;;;5024419;28;20473;-74
2022/12/11 09:09:00;;;;;;;40.38;18.85;;;;;;;;;;5020240;28;20033;-73
2022/12/11 09:11:28;;;;;;;39.85;19.08;;;;;;;;;;5018007;28;20093;-73
2022/12/11 09:13:54;;;;;;;33.25;15.60;;;;;;;;;;5014985;28;20393;-74
2022/12/11 09:16:21;;;;;;;36.47;17.50;;;;;;;;;;5017510;28;20030;-73
2022/12/11 09:18:49;;;;;;;42.67;20.02;;;;;;;;;;5019266;28;20057;-73
2022/12/11 09:21:16;;;;;;;48.60;18.48;;;;;;;;;;5019929;28;20026;-73
2022/12/11 09:23:42;;;;;;;35.88;16.33;;;;;;;;;;5017701;28;20058;-74
2022/12/11 09:26:12;;;;;;;41.78;19.40;;;;;;;;;;5026291;28;20131;-75
2022/12/11 09:28:39;;;;;;;35.25;14.93;;;;;;;;;;5013562;28;20036;-74
2022/12/11 09:31:13;;;;;;;25.60;12.52;;;;;;;;;;5024875;28;20041;-75
2022/12/11 09:33:39;;;;;;;30.67;12.05;;;;;;;;;;5041399;28;20045;-74
2022/12/11 09:36:05;;;;;;;23.45;10.50;;;;;;;;;;5007628;28;20037;-74
2022/12/11 09:38:32;;;;;;;28.23;11.75;;;;;;;;;;5029829;28;20041;-74
2022/12/11 09:40:59;;;;;;;23.65;10.10;;;;;;;;;;5046185;28;20022;-75
2022/12/11 09:43:37;;;;;;;28.17;11.40;;;;;;;;;;5006488;28;20038;-74
2022/12/11 09:46:09;;;;;;;26.67;9.90;;;;;;;;;;5034671;28;20129;-73
2022/12/11 09:48:35;;;;;;;29.67;11.88;;;;;;;;;;5038553;28;20129;-74
2022/12/11 09:51:09;;;;;;;29.38;12.27;;;;;;;;;;5025127;28;20466;-73
2022/12/11 09:53:35;;;;;;;32.97;13.00;;;;;;;;;;5005185;28;20030;-74
2022/12/11 09:56:35;;;;;;;37.85;13.73;;;;;;;;;;5026485;28;20038;-74
2022/12/11 09:59:10;;;;;;;31.52;15.23;;;;;;;;;;4996879;28;20450;-73
2022/12/11 10:01:49;;;;;;;33.90;14.70;;;;;;;;;;5036643;28;20076;-73
2022/12/11 10:04:37;;;;;;;28.70;14.10;;;;;;;;;;5025945;28;20041;-73
2022/12/11 10:07:24;;;;;;;27.60;12.32;;;;;;;;;;5026276;28;20046;-74
2022/12/11 10:10:16;;;;;;;27.65;11.30;;;;;;;;;;5024662;28;20049;-73
2022/12/11 10:12:47;;;;;;;21.92;10.70;;;;;;;;;;5010882;28;20038;-74
2022/12/11 10:15:25;;;;;;;18.45;9.55;;;;;;;;;;5001287;28;20069;-74
2022/12/11 10:17:53;;;;;;;15.30;8.40;;;;;;;;;;5026438;28;20049;-75
2022/12/11 10:20:25;;;;;;;19.23;9.20;;;;;;;;;;5002078;28;20389;-73
2022/12/11 10:22:51;;;;;;;21.40;9.52;;;;;;;;;;5036363;28;20041;-74
2022/12/11 10:25:24;;;;;;;19.20;10.48;;;;;;;;;;5004560;28;20037;-74
2022/12/11 10:27:50;;;;;;;24.30;11.90;;;;;;;;;;5029967;28;20030;-73
2022/12/11 10:30:21;;;;;;;30.48;14.20;;;;;;;;;;5016745;28;20042;-74
2022/12/11 10:32:51;;;;;;;26.13;13.25;;;;;;;;;;5009165;28;20057;-73
2022/12/11 10:35:26;;;;;;;26.33;12.00;;;;;;;;;;5030932;28;20624;-73
2022/12/11 10:37:54;;;;;;;26.67;11.15;;;;;;;;;;4998616;28;20033;-73
2022/12/11 10:40:21;;;;;;;15.52;7.32;;;;;;;;;;5005292;28;20748;-73
2022/12/11 10:42:55;;;;;;;19.30;7.68;;;;;;;;;;5006001;28;20072;-73
2022/12/11 10:45:21;;;;;;;18.73;7.68;;;;;;;;;;5021837;28;20038;-74
2022/12/11 10:47:46;;;;;;;14.10;7.00;;;;;;;;;;5023914;28;20050;-73
2022/12/11 10:50:23;;;;;;;13.10;6.72;;;;;;;;;;5022578;28;20041;-74
2022/12/11 10:52:49;;;;;;;13.57;6.60;;;;;;;;;;5010398;28;20041;-73
2022/12/11 10:55:38;;;;;;;17.73;6.68;;;;;;;;;;5036676;28;20040;-73
2022/12/11 10:58:05;;;;;;;11.13;5.75;;;;;;;;;;5023486;28;20034;-73
2022/12/11 11:00:35;;;;;;;16.92;7.95;;;;;;;;;;5004146;28;20112;-74
2022/12/11 11:03:01;;;;;;;14.93;7.07;;;;;;;;;;5022949;28;20045;-73
2022/12/11 11:05:33;;;;;;;13.73;6.82;;;;;;;;;;5040780;28;20041;-73
2022/12/11 11:08:20;;;;;;;12.55;6.45;;;;;;;;;;5003398;28;20052;-73
2022/12/11 11:10:57;;;;;;;11.00;6.03;;;;;;;;;;5031885;28;20042;-74
2022/12/11 11:13:24;;;;;;;14.30;5.97;;;;;;;;;;5014475;28;20034;-73
2022/12/11 11:16:11;;;;;;;11.68;6.25;;;;;;;;;;5033320;28;20046;-73
2022/12/11 11:18:38;;;;;;;10.50;5.63;;;;;;;;;;5012200;28;20018;-74
2022/12/11 11:21:04;;;;;;;13.55;5.88;;;;;;;;;;5025364;28;20033;-73
2022/12/11 11:23:29;;;;;;;10.60;5.55;;;;;;;;;;5044068;28;20465;-73
2022/12/11 11:26:00;;;;;;;12.80;6.18;;;;;;;;;;5046821;28;20033;-73
2022/12/11 11:28:33;;;;;;;10.32;5.65;;;;;;;;;;5041985;28;20489;-73
2022/12/11 11:31:02;;;;;;;11.05;5.57;;;;;;;;;;5025072;28;20112;-73
2022/12/11 11:33:29;;;;;;;11.15;5.38;;;;;;;;;;5043955;28;20037;-73
2022/12/11 11:35:57;;;;;;;12.40;6.10;;;;;;;;;;5043332;28;20457;-73
2022/12/11 11:38:30;;;;;;;11.93;6.30;;;;;;;;;;5007746;28;20038;-73
2022/12/11 11:41:10;;;;;;;10.82;5.93;;;;;;;;;;5030158;28;20384;-73
2022/12/11 11:43:57;;;;;;;10.50;5.43;;;;;;;;;;5014718;28;20500;-73
2022/12/11 11:46:35;;;;;;;8.65;4.47;;;;;;;;;;5032288;28;20451;-74
2022/12/11 11:49:31;;;;;;;8.88;4.22;;;;;;;;;;5047440;28;20048;-73
2022/12/11 11:52:06;;;;;;;6.57;4.35;;;;;;;;;;5036212;28;20064;-73
2022/12/11 11:54:35;;;;;;;7.78;4.22;;;;;;;;;;5006345;28;20018;-73
2022/12/11 11:57:10;;;;;;;5.32;3.85;;;;;;;;;;5004294;28;20080;-73
2022/12/11 11:59:42;;;;;;;7.03;3.70;;;;;;;;;;5034834;28;20040;-73
2022/12/11 12:02:15;;;;;;;7.55;3.88;;;;;;;;;;5027558;28;20095;-74
2022/12/11 12:04:41;;;;;;;5.93;3.38;;;;;;;;;;5014620;28;20559;-74
2022/12/11 12:07:28;;;;;;;6.25;3.08;;;;;;;;;;5049295;28;20080;-74
2022/12/11 12:09:59;;;;;;;5.30;3.42;;;;;;;;;;5027588;28;20040;-74
2022/12/11 12:13:05;;;;;;;5.90;3.58;;;;;;;;;;5028096;28;20072;-74
2022/12/11 12:15:58;;;;;;;6.22;3.50;;;;;;;;;;4980378;28;20037;-74
2022/12/11 12:18:38;;;;;;;6.60;3.40;;;;;;;;;;5004494;28;20080;-74
2022/12/11 12:21:28;;;;;;;7.55;4.82;;;;;;;;;;5024925;28;20510;-74
2022/12/11 12:24:18;;;;;;;10.32;4.07;;;;;;;;;;5019308;28;20050;-74
2022/12/11 12:26:51;;;;;;;9.38;4.07;;;;;;;;;;5027777;28;20469;-74
2022/12/11 12:29:25;;;;;;;9.40;4.60;;;;;;;;;;5048678;28;20041;-74
2022/12/11 12:32:28;;;;;;;8.02;3.65;;;;;;;;;;5022684;28;20140;-74
2022/12/11 12:35:06;;;;;;;9.48;3.63;;;;;;;;;;5035267;28;20025;-74
2022/12/11 12:37:53;;;;;;;7.13;4.28;;;;;;;;;;5019554;28;20092;-74
2022/12/11 12:40:31;;;;;;;7.22;4.20;;;;;;;;;;5018720;28;20075;-73
2022/12/11 12:43:24;;;;;;;8.27;4.30;;;;;;;;;;5033575;28;20044;-74
2022/12/11 12:46:00;;;;;;;6.47;3.92;;;;;;;;;;5028763;28;20061;-74
2022/12/11 12:48:26;;;;;;;6.88;3.55;;;;;;;;;;5008378;28;20132;-74
2022/12/11 12:50:51;;;;;;;6.70;3.38;;;;;;;;;;5031075;28;20120;-74
2022/12/11 12:53:20;;;;;;;7.07;4.68;;;;;;;;;;4984611;28;20400;-74
2022/12/11 12:55:47;;;;;;;7.75;4.18;;;;;;;;;;5004016;28;20365;-73
2022/12/11 12:58:42;;;;;;;6.88;4.30;;;;;;;;;;5031078;28;20460;-74
2022/12/11 13:01:20;;;;;;;6.25;4.03;;;;;;;;;;4989316;28;20036;-74
2022/12/11 13:04:01;;;;;;;7.80;4.35;;;;;;;;;;4995098;28;20025;-74
2022/12/11 13:06:29;;;;;;;5.72;3.80;;;;;;;;;;5008077;28;20500;-73
2022/12/11 13:08:54;;;;;;;6.65;3.40;;;;;;;;;;5014081;28;20045;-74
2022/12/11 13:11:30;;;;;;;6.10;3.40;;;;;;;;;;5025275;28;20373;-74
2022/12/11 13:14:17;;;;;;;5.30;3.35;;;;;;;;;;5022062;28;20041;-74
2022/12/11 13:16:43;;;;;;;4.60;2.80;;;;;;;;;;5016409;28;20090;-74
2022/12/11 13:19:29;;;;;;;4.47;2.90;;;;;;;;;;5019670;28;20564;-76
2022/12/11 13:22:19;;;;;;;5.55;3.38;;;;;;;;;;5014913;28;20128;-73
2022/12/11 13:25:16;;;;;;;4.28;2.55;;;;;;;;;;5016835;28;20044;-74
2022/12/11 13:27:42;;;;;;;6.53;3.00;;;;;;;;;;5001294;28;20043;-74
2022/12/11 13:30:13;;;;;;;5.35;2.70;;;;;;;;;;5027142;28;20042;-74
2022/12/11 13:32:40;;;;;;;4.95;2.85;;;;;;;;;;5021495;28;20033;-73
2022/12/11 13:35:14;;;;;;;6.13;3.03;;;;;;;;;;5042988;28;20026;-73
2022/12/11 13:37:44;;;;;;;5.25;3.30;;;;;;;;;;5018346;28;20052;-75
2022/12/11 13:40:21;;;;;;;5.38;3.28;;;;;;;;;;4999864;28;20038;-74
2022/12/11 13:42:49;;;;;;;5.50;3.40;;;;;;;;;;5022378;28;20056;-73
2022/12/11 13:45:22;;;;;;;6.13;3.33;;;;;;;;;;5008241;28;20551;-73
2022/12/11 13:47:48;;;;;;;5.63;3.57;;;;;;;;;;5026904;28;20492;-73
2022/12/11 13:50:20;;;;;;;7.53;3.30;;;;;;;;;;5043566;28;20305;-74
2022/12/11 13:52:56;;;;;;;6.30;3.95;;;;;;;;;;5037420;28;20037;-74
2022/12/11 13:55:26;;;;;;;5.57;3.45;;;;;;;;;;5025876;28;20099;-73
2022/12/11 13:57:51;;;;;;;10.27;5.30;;;;;;;;;;5021138;28;20053;-73
2022/12/11 14:00:25;;;;;;;21.50;9.35;;;;;;;;;;5017531;28;20041;-73
2022/12/11 14:02:52;;;;;;;19.15;8.65;;;;;;;;;;5022590;28;20159;-73
2022/12/11 14:05:18;;;;;;;17.90;6.90;;;;;;;;;;5007801;28;20087;-73
2022/12/11 14:07:53;;;;;;;8.55;4.28;;;;;;;;;;5043781;28;20496;-73
2022/12/11 14:10:24;;;;;;;5.32;3.38;;;;;;;;;;5026243;28;20053;-73
2022/12/11 14:12:58;;;;;;;10.32;5.35;;;;;;;;;;5027011;28;20029;-72
2022/12/11 14:15:25;;;;;;;8.15;4.38;;;;;;;;;;5009905;28;20466;-74
2022/12/11 14:17:51;;;;;;;8.95;4.45;;;;;;;;;;5039059;28;20044;-73
2022/12/11 14:20:23;;;;;;;7.93;4.43;;;;;;;;;;5002768;28;20041;-72
2022/12/11 14:22:49;;;;;;;7.93;4.47;;;;;;;;;;5041283;28;20486;-73
2022/12/11 14:25:25;;;;;;;6.90;3.95;;;;;;;;;;5030095;28;20028;-73
2022/12/11 14:27:55;;;;;;;6.70;3.70;;;;;;;;;;5021473;28;20115;-73
2022/12/11 14:30:23;;;;;;;6.85;3.92;;;;;;;;;;5003375;28;20029;-73
2022/12/11 14:32:50;;;;;;;8.13;4.10;;;;;;;;;;5045419;28;20417;-73
2022/12/11 14:35:33;;;;;;;7.55;4.47;;;;;;;;;;5019312;28;20412;-73
2022/12/11 14:38:01;;;;;;;16.60;7.30;;;;;;;;;;5041591;28;20449;-73
2022/12/11 14:40:31;;;;;;;15.07;6.90;;;;;;;;;;4997676;28;20492;-73
2022/12/11 14:43:01;;;;;;;11.65;6.03;;;;;;;;;;5002131;28;20041;-75
2022/12/11 14:45:33;;;;;;;6.10;3.63;;;;;;;;;;5015589;28;20508;-74
2022/12/11 14:48:01;;;;;;;5.93;3.97;;;;;;;;;;5000283;28;20056;-74
2022/12/11 14:50:38;;;;;;;7.95;3.72;;;;;;;;;;5039180;28;20539;-73